sensor_id;sensor_type;location;lat;lon;timestamp;P1;durP1;ratioP1;P2;durP2;ratioP2
23668;SDS011;12011;47.422;15.018;2022-09-13T00:00:18;1.40;;;1.39;;
23668;SDS011;12011;47.422;15.018;2022-09-13T00:02:48;1.57;;;1.57;;
23668;SDS011;12011;47.422;15.018;2022-09-13T00:05:17;1.52;;;1.52;;
23668;SDS011;12011;47.422;15.018;2022-09-13T00:07:47;1.61;;;1.60;;
23668;SDS011;12011;47.422;15.018;2022-09-13T00:10:19;1.46;;;1.46;;
23668;SDS011;12011;47.422;15.018;2022-09-13T00:12:50;1.33;;;1.33;;
23668;SDS011;12011;47.422;15.018;2022-09-13T00:15:20;1.71;;;1.71;;
23668;SDS011;12011;47.422;15.018;2022-09-13T00:17:49;1.55;;;1.55;;
23668;SDS011;12011;47.422;15.018;2022-09-13T00:20:19;1.59;;;1.59;;
23668;SDS011;12011;47.422;15.018;2022-09-13T00:22:49;1.42;;;1.42;;
23668;SDS011;12011;47.422;15.018;2022-09-13T00:25:21;1.59;;;1.59;;
23668;SDS011;12011;47.422;15.018;2022-09-13T00:27:50;1.67;;;1.67;;
23668;SDS011;12011;47.422;15.018;2022-09-13T00:30:20;1.28;;;1.28;;
23668;SDS011;12011;47.422;15.018;2022-09-13T00:32:49;1.56;;;1.56;;
23668;SDS011;12011;47.422;15.018;2022-09-13T00:35:19;1.38;;;1.38;;
23668;SDS011;12011;47.422;15.018;2022-09-13T00:37:48;1.43;;;1.43;;
23668;SDS011;12011;47.422;15.018;2022-09-13T00:40:20;1.51;;;1.51;;
23668;SDS011;12011;47.422;15.018;2022-09-13T00:42:50;1.34;;;1.34;;
23668;SDS011;12011;47.422;15.018;2022-09-13T00:45:19;1.17;;;1.17;;
23668;SDS011;12011;47.422;15.018;2022-09-13T00:47:50;1.42;;;1.42;;
23668;SDS011;12011;47.422;15.018;2022-09-13T00:50:27;1.23;;;1.23;;
23668;SDS011;12011;47.422;15.018;2022-09-13T00:53:04;1.09;;;1.09;;
23668;SDS011;12011;47.422;15.018;2022-09-13T00:55:43;1.25;;;1.25;;
23668;SDS011;12011;47.422;15.018;2022-09-13T00:58:20;1.28;;;1.28;;
23668;SDS011;12011;47.422;15.018;2022-09-13T01:00:55;1.51;;;1.51;;
23668;SDS011;12011;47.422;15.018;2022-09-13T01:03:28;1.37;;;1.37;;
23668;SDS011;12011;47.422;15.018;2022-09-13T01:06:02;1.44;;;1.44;;
23668;SDS011;12011;47.422;15.018;2022-09-13T01:08:37;1.47;;;1.47;;
23668;SDS011;12011;47.422;15.018;2022-09-13T01:11:15;0.90;;;0.90;;
23668;SDS011;12011;47.422;15.018;2022-09-13T01:13:54;1.10;;;1.09;;
23668;SDS011;12011;47.422;15.018;2022-09-13T01:16:25;1.18;;;1.17;;
23668;SDS011;12011;47.422;15.018;2022-09-13T01:18:55;1.23;;;1.21;;
23668;SDS011;12011;47.422;15.018;2022-09-13T01:24:50;1.24;;;1.24;;
23668;SDS011;12011;47.422;15.018;2022-09-13T01:30:52;1.37;;;1.37;;
23668;SDS011;12011;47.422;15.018;2022-09-13T01:33:37;1.45;;;1.45;;
23668;SDS011;12011;47.422;15.018;2022-09-13T01:36:29;1.00;;;1.00;;
23668;SDS011;12011;47.422;15.018;2022-09-13T01:39:15;1.00;;;1.00;;
23668;SDS011;12011;47.422;15.018;2022-09-13T01:42:08;1.11;;;1.11;;
23668;SDS011;12011;47.422;15.018;2022-09-13T01:45:02;1.14;;;1.14;;
23668;SDS011;12011;47.422;15.018;2022-09-13T01:47:51;1.14;;;1.14;;
23668;SDS011;12011;47.422;15.018;2022-09-13T01:50:28;1.38;;;1.38;;
23668;SDS011;12011;47.422;15.018;2022-09-13T01:53:13;1.33;;;1.33;;
23668;SDS011;12011;47.422;15.018;2022-09-13T01:55:56;1.29;;;1.29;;
23668;SDS011;12011;47.422;15.018;2022-09-13T01:58:34;1.10;;;1.10;;
23668;SDS011;12011;47.422;15.018;2022-09-13T02:01:13;1.15;;;1.15;;
23668;SDS011;12011;47.422;15.018;2022-09-13T02:03:51;1.27;;;1.27;;
23668;SDS011;12011;47.422;15.018;2022-09-13T02:06:27;1.08;;;1.08;;
23668;SDS011;12011;47.422;15.018;2022-09-13T02:09:02;1.08;;;1.08;;
23668;SDS011;12011;47.422;15.018;2022-09-13T02:11:39;1.07;;;1.07;;
23668;SDS011;12011;47.422;15.018;2022-09-13T02:14:15;1.30;;;1.30;;
23668;SDS011;12011;47.422;15.018;2022-09-13T02:16:50;1.21;;;1.21;;
23668;SDS011;12011;47.422;15.018;2022-09-13T02:19:30;1.38;;;1.38;;
23668;SDS011;12011;47.422;15.018;2022-09-13T02:22:07;1.20;;;1.20;;
23668;SDS011;12011;47.422;15.018;2022-09-13T02:24:43;1.26;;;1.26;;
23668;SDS011;12011;47.422;15.018;2022-09-13T02:27:19;1.07;;;1.07;;
23668;SDS011;12011;47.422;15.018;2022-09-13T02:29:57;1.17;;;1.17;;
23668;SDS011;12011;47.422;15.018;2022-09-13T02:32:33;1.04;;;1.04;;
23668;SDS011;12011;47.422;15.018;2022-09-13T02:35:13;1.21;;;1.21;;
23668;SDS011;12011;47.422;15.018;2022-09-13T02:37:56;1.06;;;1.06;;
23668;SDS011;12011;47.422;15.018;2022-09-13T02:40:31;0.96;;;0.96;;
23668;SDS011;12011;47.422;15.018;2022-09-13T02:43:09;1.23;;;1.23;;
23668;SDS011;12011;47.422;15.018;2022-09-13T02:45:52;0.95;;;0.95;;
23668;SDS011;12011;47.422;15.018;2022-09-13T02:48:39;0.80;;;0.80;;
23668;SDS011;12011;47.422;15.018;2022-09-13T02:51:28;0.78;;;0.78;;
23668;SDS011;12011;47.422;15.018;2022-09-13T02:54:08;0.92;;;0.92;;
23668;SDS011;12011;47.422;15.018;2022-09-13T02:56:53;1.10;;;1.10;;
23668;SDS011;12011;47.422;15.018;2022-09-13T02:59:33;1.17;;;1.17;;
23668;SDS011;12011;47.422;15.018;2022-09-13T03:02:04;1.15;;;1.15;;
23668;SDS011;12011;47.422;15.018;2022-09-13T03:04:38;1.27;;;1.27;;
23668;SDS011;12011;47.422;15.018;2022-09-13T03:07:11;0.97;;;0.97;;
23668;SDS011;12011;47.422;15.018;2022-09-13T03:09:44;1.10;;;1.10;;
23668;SDS011;12011;47.422;15.018;2022-09-13T03:12:24;1.01;;;1.01;;
23668;SDS011;12011;47.422;15.018;2022-09-13T03:15:32;0.66;;;0.66;;
23668;SDS011;12011;47.422;15.018;2022-09-13T03:18:24;0.86;;;0.86;;
23668;SDS011;12011;47.422;15.018;2022-09-13T03:21:25;0.80;;;0.80;;
23668;SDS011;12011;47.422;15.018;2022-09-13T03:24:17;1.02;;;1.02;;
23668;SDS011;12011;47.422;15.018;2022-09-13T03:26:56;0.90;;;0.90;;
23668;SDS011;12011;47.422;15.018;2022-09-13T03:29:42;0.97;;;0.97;;
23668;SDS011;12011;47.422;15.018;2022-09-13T03:32:24;1.25;;;1.25;;
23668;SDS011;12011;47.422;15.018;2022-09-13T03:35:06;1.15;;;1.15;;
23668;SDS011;12011;47.422;15.018;2022-09-13T03:37:50;1.26;;;1.26;;
23668;SDS011;12011;47.422;15.018;2022-09-13T03:40:37;1.19;;;1.19;;
23668;SDS011;12011;47.422;15.018;2022-09-13T03:43:15;1.25;;;1.25;;
23668;SDS011;12011;47.422;15.018;2022-09-13T03:45:55;1.56;;;1.56;;
23668;SDS011;12011;47.422;15.018;2022-09-13T03:48:30;1.41;;;1.41;;
23668;SDS011;12011;47.422;15.018;2022-09-13T03:51:04;1.56;;;1.56;;
23668;SDS011;12011;47.422;15.018;2022-09-13T03:53:37;1.38;;;1.38;;
23668;SDS011;12011;47.422;15.018;2022-09-13T03:56:16;1.57;;;1.57;;
23668;SDS011;12011;47.422;15.018;2022-09-13T03:58:48;1.11;;;1.11;;
23668;SDS011;12011;47.422;15.018;2022-09-13T04:01:19;1.17;;;1.17;;
23668;SDS011;12011;47.422;15.018;2022-09-13T04:03:50;1.34;;;1.34;;
23668;SDS011;12011;47.422;15.018;2022-09-13T04:06:20;1.15;;;1.15;;
23668;SDS011;12011;47.422;15.018;2022-09-13T04:08:50;1.21;;;1.21;;
23668;SDS011;12011;47.422;15.018;2022-09-13T04:11:22;0.94;;;0.94;;
23668;SDS011;12011;47.422;15.018;2022-09-13T04:13:52;1.12;;;1.12;;
23668;SDS011;12011;47.422;15.018;2022-09-13T04:16:23;1.43;;;1.43;;
23668;SDS011;12011;47.422;15.018;2022-09-13T04:18:53;0.94;;;0.94;;
23668;SDS011;12011;47.422;15.018;2022-09-13T04:21:22;1.02;;;1.02;;
23668;SDS011;12011;47.422;15.018;2022-09-13T04:23:52;1.11;;;1.11;;
23668;SDS011;12011;47.422;15.018;2022-09-13T04:26:24;1.21;;;1.21;;
23668;SDS011;12011;47.422;15.018;2022-09-13T04:28:53;1.28;;;1.28;;
23668;SDS011;12011;47.422;15.018;2022-09-13T04:31:23;1.19;;;1.19;;
23668;SDS011;12011;47.422;15.018;2022-09-13T04:33:54;1.34;;;1.34;;
23668;SDS011;12011;47.422;15.018;2022-09-13T04:36:25;1.64;;;1.64;;
23668;SDS011;12011;47.422;15.018;2022-09-13T04:38:54;1.61;;;1.61;;
23668;SDS011;12011;47.422;15.018;2022-09-13T04:41:27;1.66;;;1.66;;
23668;SDS011;12011;47.422;15.018;2022-09-13T04:43:59;1.55;;;1.54;;
23668;SDS011;12011;47.422;15.018;2022-09-13T04:46:29;1.58;;;1.58;;
23668;SDS011;12011;47.422;15.018;2022-09-13T04:48:59;1.63;;;1.63;;
23668;SDS011;12011;47.422;15.018;2022-09-13T04:51:29;1.42;;;1.42;;
23668;SDS011;12011;47.422;15.018;2022-09-13T04:54:01;1.47;;;1.47;;
23668;SDS011;12011;47.422;15.018;2022-09-13T04:56:36;1.30;;;1.30;;
23668;SDS011;12011;47.422;15.018;2022-09-13T04:59:09;1.47;;;1.47;;
23668;SDS011;12011;47.422;15.018;2022-09-13T05:01:42;1.57;;;1.57;;
23668;SDS011;12011;47.422;15.018;2022-09-13T05:04:13;2.23;;;2.23;;
23668;SDS011;12011;47.422;15.018;2022-09-13T05:06:44;2.08;;;2.07;;
23668;SDS011;12011;47.422;15.018;2022-09-13T05:09:13;1.97;;;1.96;;
23668;SDS011;12011;47.422;15.018;2022-09-13T05:11:46;2.11;;;2.10;;
23668;SDS011;12011;47.422;15.018;2022-09-13T05:14:16;1.43;;;1.43;;
23668;SDS011;12011;47.422;15.018;2022-09-13T05:16:45;2.08;;;2.08;;
23668;SDS011;12011;47.422;15.018;2022-09-13T05:19:15;1.57;;;1.56;;
23668;SDS011;12011;47.422;15.018;2022-09-13T05:21:45;1.72;;;1.72;;
23668;SDS011;12011;47.422;15.018;2022-09-13T05:24:14;1.74;;;1.74;;
23668;SDS011;12011;47.422;15.018;2022-09-13T05:26:46;1.50;;;1.50;;
23668;SDS011;12011;47.422;15.018;2022-09-13T05:29:16;1.48;;;1.48;;
23668;SDS011;12011;47.422;15.018;2022-09-13T05:31:45;1.74;;;1.74;;
23668;SDS011;12011;47.422;15.018;2022-09-13T05:34:15;1.90;;;1.89;;
23668;SDS011;12011;47.422;15.018;2022-09-13T05:36:46;1.81;;;1.81;;
23668;SDS011;12011;47.422;15.018;2022-09-13T05:39:15;1.50;;;1.50;;
23668;SDS011;12011;47.422;15.018;2022-09-13T05:41:49;1.35;;;1.35;;
23668;SDS011;12011;47.422;15.018;2022-09-13T05:44:19;1.84;;;1.84;;
23668;SDS011;12011;47.422;15.018;2022-09-13T05:46:48;1.99;;;1.99;;
23668;SDS011;12011;47.422;15.018;2022-09-13T05:49:18;1.56;;;1.56;;
23668;SDS011;12011;47.422;15.018;2022-09-13T05:51:47;1.31;;;1.31;;
23668;SDS011;12011;47.422;15.018;2022-09-13T05:54:17;1.36;;;1.36;;
23668;SDS011;12011;47.422;15.018;2022-09-13T05:56:49;1.18;;;1.18;;
23668;SDS011;12011;47.422;15.018;2022-09-13T05:59:22;1.09;;;1.09;;
23668;SDS011;12011;47.422;15.018;2022-09-13T06:01:51;1.48;;;1.48;;
23668;SDS011;12011;47.422;15.018;2022-09-13T06:04:21;1.31;;;1.31;;
23668;SDS011;12011;47.422;15.018;2022-09-13T06:06:51;1.35;;;1.35;;
23668;SDS011;12011;47.422;15.018;2022-09-13T06:09:20;1.24;;;1.24;;
23668;SDS011;12011;47.422;15.018;2022-09-13T06:11:52;1.74;;;1.74;;
23668;SDS011;12011;47.422;15.018;2022-09-13T06:14:22;1.39;;;1.39;;
23668;SDS011;12011;47.422;15.018;2022-09-13T06:16:52;1.33;;;1.33;;
23668;SDS011;12011;47.422;15.018;2022-09-13T06:19:21;1.19;;;1.19;;
23668;SDS011;12011;47.422;15.018;2022-09-13T06:21:51;1.09;;;1.09;;
23668;SDS011;12011;47.422;15.018;2022-09-13T06:24:20;1.33;;;1.33;;
23668;SDS011;12011;47.422;15.018;2022-09-13T06:26:53;1.36;;;1.36;;
23668;SDS011;12011;47.422;15.018;2022-09-13T06:29:22;1.30;;;1.30;;
23668;SDS011;12011;47.422;15.018;2022-09-13T06:31:52;1.21;;;1.21;;
23668;SDS011;12011;47.422;15.018;2022-09-13T06:34:22;1.29;;;1.29;;
23668;SDS011;12011;47.422;15.018;2022-09-13T06:36:52;1.39;;;1.39;;
23668;SDS011;12011;47.422;15.018;2022-09-13T06:39:22;1.19;;;1.19;;
23668;SDS011;12011;47.422;15.018;2022-09-13T06:41:54;1.10;;;1.10;;
23668;SDS011;12011;47.422;15.018;2022-09-13T06:44:37;1.16;;;1.16;;
23668;SDS011;12011;47.422;15.018;2022-09-13T06:47:07;1.18;;;1.18;;
23668;SDS011;12011;47.422;15.018;2022-09-13T06:49:37;1.19;;;1.19;;
23668;SDS011;12011;47.422;15.018;2022-09-13T06:52:07;1.08;;;1.08;;
23668;SDS011;12011;47.422;15.018;2022-09-13T06:54:36;1.08;;;1.08;;
23668;SDS011;12011;47.422;15.018;2022-09-13T06:57:09;1.84;;;1.84;;
23668;SDS011;12011;47.422;15.018;2022-09-13T06:59:38;2.92;;;2.92;;
23668;SDS011;12011;47.422;15.018;2022-09-13T07:02:08;2.37;;;2.37;;
23668;SDS011;12011;47.422;15.018;2022-09-13T07:04:38;1.96;;;1.96;;
23668;SDS011;12011;47.422;15.018;2022-09-13T07:07:08;1.27;;;1.27;;
23668;SDS011;12011;47.422;15.018;2022-09-13T07:09:38;1.26;;;1.26;;
23668;SDS011;12011;47.422;15.018;2022-09-13T07:12:10;1.43;;;1.43;;
23668;SDS011;12011;47.422;15.018;2022-09-13T07:14:40;1.34;;;1.34;;
23668;SDS011;12011;47.422;15.018;2022-09-13T07:17:09;1.15;;;1.15;;
23668;SDS011;12011;47.422;15.018;2022-09-13T07:19:39;0.97;;;0.97;;
23668;SDS011;12011;47.422;15.018;2022-09-13T07:22:08;0.99;;;0.99;;
23668;SDS011;12011;47.422;15.018;2022-09-13T07:24:38;1.26;;;1.26;;
23668;SDS011;12011;47.422;15.018;2022-09-13T07:27:10;1.01;;;1.01;;
23668;SDS011;12011;47.422;15.018;2022-09-13T07:29:41;1.25;;;1.25;;
23668;SDS011;12011;47.422;15.018;2022-09-13T07:32:10;1.11;;;1.11;;
23668;SDS011;12011;47.422;15.018;2022-09-13T07:34:40;0.87;;;0.87;;
23668;SDS011;12011;47.422;15.018;2022-09-13T07:37:10;0.89;;;0.89;;
23668;SDS011;12011;47.422;15.018;2022-09-13T07:39:42;1.03;;;1.03;;
23668;SDS011;12011;47.422;15.018;2022-09-13T07:42:14;0.86;;;0.86;;
23668;SDS011;12011;47.422;15.018;2022-09-13T07:44:43;1.08;;;1.08;;
23668;SDS011;12011;47.422;15.018;2022-09-13T07:47:13;1.07;;;1.07;;
23668;SDS011;12011;47.422;15.018;2022-09-13T07:49:42;1.00;;;1.00;;
23668;SDS011;12011;47.422;15.018;2022-09-13T07:52:12;0.99;;;0.99;;
23668;SDS011;12011;47.422;15.018;2022-09-13T07:54:41;1.11;;;1.11;;
23668;SDS011;12011;47.422;15.018;2022-09-13T07:57:15;1.25;;;1.25;;
23668;SDS011;12011;47.422;15.018;2022-09-13T07:59:45;1.27;;;1.27;;
23668;SDS011;12011;47.422;15.018;2022-09-13T08:02:14;1.14;;;1.14;;
23668;SDS011;12011;47.422;15.018;2022-09-13T08:04:46;1.01;;;1.01;;
23668;SDS011;12011;47.422;15.018;2022-09-13T08:07:15;1.08;;;1.08;;
23668;SDS011;12011;47.422;15.018;2022-09-13T08:09:45;1.12;;;1.12;;
23668;SDS011;12011;47.422;15.018;2022-09-13T08:12:17;0.96;;;0.96;;
23668;SDS011;12011;47.422;15.018;2022-09-13T08:14:46;1.05;;;1.05;;
23668;SDS011;12011;47.422;15.018;2022-09-13T08:17:16;0.95;;;0.95;;
23668;SDS011;12011;47.422;15.018;2022-09-13T08:19:45;0.82;;;0.82;;
23668;SDS011;12011;47.422;15.018;2022-09-13T08:22:15;0.87;;;0.87;;
23668;SDS011;12011;47.422;15.018;2022-09-13T08:24:44;1.07;;;1.07;;
23668;SDS011;12011;47.422;15.018;2022-09-13T08:27:16;0.97;;;0.97;;
23668;SDS011;12011;47.422;15.018;2022-09-13T08:29:46;0.94;;;0.94;;
23668;SDS011;12011;47.422;15.018;2022-09-13T08:32:15;0.90;;;0.90;;
23668;SDS011;12011;47.422;15.018;2022-09-13T08:34:45;0.79;;;0.79;;
23668;SDS011;12011;47.422;15.018;2022-09-13T08:37:14;0.90;;;0.90;;
23668;SDS011;12011;47.422;15.018;2022-09-13T08:39:44;1.06;;;1.06;;
23668;SDS011;12011;47.422;15.018;2022-09-13T08:42:22;0.87;;;0.87;;
23668;SDS011;12011;47.422;15.018;2022-09-13T08:45:07;0.79;;;0.79;;
23668;SDS011;12011;47.422;15.018;2022-09-13T08:47:37;0.80;;;0.80;;
23668;SDS011;12011;47.422;15.018;2022-09-13T08:50:13;0.83;;;0.83;;
23668;SDS011;12011;47.422;15.018;2022-09-13T08:52:59;0.88;;;0.88;;
23668;SDS011;12011;47.422;15.018;2022-09-13T08:55:50;0.80;;;0.80;;
23668;SDS011;12011;47.422;15.018;2022-09-13T08:58:40;0.91;;;0.91;;
23668;SDS011;12011;47.422;15.018;2022-09-13T09:01:31;0.68;;;0.68;;
23668;SDS011;12011;47.422;15.018;2022-09-13T09:04:21;0.83;;;0.83;;
23668;SDS011;12011;47.422;15.018;2022-09-13T09:07:05;0.92;;;0.92;;
23668;SDS011;12011;47.422;15.018;2022-09-13T09:09:44;0.67;;;0.67;;
23668;SDS011;12011;47.422;15.018;2022-09-13T09:12:23;1.04;;;1.04;;
23668;SDS011;12011;47.422;15.018;2022-09-13T09:15:07;0.80;;;0.80;;
23668;SDS011;12011;47.422;15.018;2022-09-13T09:17:45;0.81;;;0.81;;
23668;SDS011;12011;47.422;15.018;2022-09-13T09:20:26;0.72;;;0.72;;
23668;SDS011;12011;47.422;15.018;2022-09-13T09:23:00;0.97;;;0.97;;
23668;SDS011;12011;47.422;15.018;2022-09-13T09:25:35;0.88;;;0.88;;
23668;SDS011;12011;47.422;15.018;2022-09-13T09:28:08;0.71;;;0.71;;
23668;SDS011;12011;47.422;15.018;2022-09-13T09:30:48;0.71;;;0.71;;
23668;SDS011;12011;47.422;15.018;2022-09-13T09:33:34;0.73;;;0.73;;
23668;SDS011;12011;47.422;15.018;2022-09-13T09:36:31;0.69;;;0.69;;
23668;SDS011;12011;47.422;15.018;2022-09-13T09:39:09;0.85;;;0.85;;
23668;SDS011;12011;47.422;15.018;2022-09-13T09:41:41;0.67;;;0.67;;
23668;SDS011;12011;47.422;15.018;2022-09-13T09:44:15;0.82;;;0.82;;
23668;SDS011;12011;47.422;15.018;2022-09-13T09:46:55;0.63;;;0.63;;
23668;SDS011;12011;47.422;15.018;2022-09-13T09:49:31;0.58;;;0.58;;
23668;SDS011;12011;47.422;15.018;2022-09-13T09:52:20;0.69;;;0.69;;
23668;SDS011;12011;47.422;15.018;2022-09-13T09:54:55;0.75;;;0.75;;
23668;SDS011;12011;47.422;15.018;2022-09-13T09:57:50;0.69;;;0.69;;
23668;SDS011;12011;47.422;15.018;2022-09-13T10:00:23;0.64;;;0.64;;
23668;SDS011;12011;47.422;15.018;2022-09-13T10:03:00;0.60;;;0.60;;
23668;SDS011;12011;47.422;15.018;2022-09-13T10:05:35;0.55;;;0.55;;
23668;SDS011;12011;47.422;15.018;2022-09-13T10:08:04;0.65;;;0.65;;
23668;SDS011;12011;47.422;15.018;2022-09-13T10:10:41;0.52;;;0.52;;
23668;SDS011;12011;47.422;15.018;2022-09-13T10:13:19;0.52;;;0.52;;
23668;SDS011;12011;47.422;15.018;2022-09-13T10:15:53;0.58;;;0.58;;
23668;SDS011;12011;47.422;15.018;2022-09-13T10:18:28;0.53;;;0.53;;
23668;SDS011;12011;47.422;15.018;2022-09-13T10:21:00;0.63;;;0.63;;
23668;SDS011;12011;47.422;15.018;2022-09-13T10:23:32;0.65;;;0.65;;
23668;SDS011;12011;47.422;15.018;2022-09-13T10:26:08;0.55;;;0.55;;
23668;SDS011;12011;47.422;15.018;2022-09-13T10:28:42;0.69;;;0.69;;
23668;SDS011;12011;47.422;15.018;2022-09-13T10:31:17;0.53;;;0.53;;
23668;SDS011;12011;47.422;15.018;2022-09-13T10:33:55;0.73;;;0.73;;
23668;SDS011;12011;47.422;15.018;2022-09-13T10:36:29;0.54;;;0.54;;
23668;SDS011;12011;47.422;15.018;2022-09-13T10:39:03;0.70;;;0.70;;
23668;SDS011;12011;47.422;15.018;2022-09-13T10:41:42;0.57;;;0.57;;
23668;SDS011;12011;47.422;15.018;2022-09-13T10:44:29;0.68;;;0.68;;
23668;SDS011;12011;47.422;15.018;2022-09-13T10:47:05;0.74;;;0.74;;
23668;SDS011;12011;47.422;15.018;2022-09-13T10:49:49;0.76;;;0.76;;
23668;SDS011;12011;47.422;15.018;2022-09-13T10:52:22;0.85;;;0.85;;
23668;SDS011;12011;47.422;15.018;2022-09-13T10:54:55;0.72;;;0.72;;
23668;SDS011;12011;47.422;15.018;2022-09-13T11:00:59;0.71;;;0.71;;
23668;SDS011;12011;47.422;15.018;2022-09-13T11:07:38;0.63;;;0.63;;
23668;SDS011;12011;47.422;15.018;2022-09-13T11:10:36;0.77;;;0.77;;
23668;SDS011;12011;47.422;15.018;2022-09-13T11:13:23;0.64;;;0.64;;
23668;SDS011;12011;47.422;15.018;2022-09-13T11:16:08;0.66;;;0.66;;
23668;SDS011;12011;47.422;15.018;2022-09-13T11:22:23;0.74;;;0.74;;
23668;SDS011;12011;47.422;15.018;2022-09-13T11:25:28;0.70;;;0.70;;
23668;SDS011;12011;47.422;15.018;2022-09-13T11:28:18;0.65;;;0.65;;
23668;SDS011;12011;47.422;15.018;2022-09-13T11:31:08;0.71;;;0.71;;
23668;SDS011;12011;47.422;15.018;2022-09-13T11:33:56;0.76;;;0.76;;
23668;SDS011;12011;47.422;15.018;2022-09-13T11:36:57;0.76;;;0.76;;
23668;SDS011;12011;47.422;15.018;2022-09-13T11:39:57;0.80;;;0.80;;
23668;SDS011;12011;47.422;15.018;2022-09-13T11:42:50;0.95;;;0.95;;
23668;SDS011;12011;47.422;15.018;2022-09-13T11:45:36;1.03;;;1.03;;
23668;SDS011;12011;47.422;15.018;2022-09-13T11:48:26;0.84;;;0.84;;
23668;SDS011;12011;47.422;15.018;2022-09-13T11:51:49;0.83;;;0.83;;
23668;SDS011;12011;47.422;15.018;2022-09-13T11:54:35;0.90;;;0.90;;
23668;SDS011;12011;47.422;15.018;2022-09-13T11:57:26;0.71;;;0.71;;
23668;SDS011;12011;47.422;15.018;2022-09-13T12:00:04;0.69;;;0.69;;
23668;SDS011;12011;47.422;15.018;2022-09-13T12:02:47;0.72;;;0.72;;
23668;SDS011;12011;47.422;15.018;2022-09-13T12:05:30;0.74;;;0.74;;
23668;SDS011;12011;47.422;15.018;2022-09-13T12:08:09;0.79;;;0.79;;
23668;SDS011;12011;47.422;15.018;2022-09-13T12:10:47;0.73;;;0.73;;
23668;SDS011;12011;47.422;15.018;2022-09-13T12:13:26;0.72;;;0.72;;
23668;SDS011;12011;47.422;15.018;2022-09-13T12:16:01;0.81;;;0.81;;
23668;SDS011;12011;47.422;15.018;2022-09-13T12:18:37;0.69;;;0.69;;
23668;SDS011;12011;47.422;15.018;2022-09-13T12:21:12;0.94;;;0.94;;
23668;SDS011;12011;47.422;15.018;2022-09-13T12:23:49;0.69;;;0.69;;
23668;SDS011;12011;47.422;15.018;2022-09-13T12:26:25;0.66;;;0.66;;
23668;SDS011;12011;47.422;15.018;2022-09-13T12:29:10;0.68;;;0.68;;
23668;SDS011;12011;47.422;15.018;2022-09-13T12:31:46;0.84;;;0.84;;
23668;SDS011;12011;47.422;15.018;2022-09-13T12:34:17;0.73;;;0.73;;
23668;SDS011;12011;47.422;15.018;2022-09-13T12:37:08;0.57;;;0.57;;
23668;SDS011;12011;47.422;15.018;2022-09-13T12:40:03;0.65;;;0.65;;
23668;SDS011;12011;47.422;15.018;2022-09-13T12:43:14;0.71;;;0.71;;
23668;SDS011;12011;47.422;15.018;2022-09-13T12:46:12;0.62;;;0.62;;
23668;SDS011;12011;47.422;15.018;2022-09-13T12:49:18;0.64;;;0.64;;
23668;SDS011;12011;47.422;15.018;2022-09-13T12:55:12;0.72;;;0.72;;
23668;SDS011;12011;47.422;15.018;2022-09-13T12:58:12;0.63;;;0.63;;
23668;SDS011;12011;47.422;15.018;2022-09-13T13:01:22;0.71;;;0.71;;
23668;SDS011;12011;47.422;15.018;2022-09-13T13:03:56;0.59;;;0.59;;
23668;SDS011;12011;47.422;15.018;2022-09-13T13:06:32;0.67;;;0.67;;
23668;SDS011;12011;47.422;15.018;2022-09-13T13:09:20;0.59;;;0.59;;
23668;SDS011;12011;47.422;15.018;2022-09-13T13:11:55;0.75;;;0.75;;
23668;SDS011;12011;47.422;15.018;2022-09-13T13:14:27;0.63;;;0.63;;
23668;SDS011;12011;47.422;15.018;2022-09-13T13:23:31;0.63;;;0.63;;
23668;SDS011;12011;47.422;15.018;2022-09-13T13:26:05;0.69;;;0.69;;
23668;SDS011;12011;47.422;15.018;2022-09-13T13:28:47;0.63;;;0.63;;
23668;SDS011;12011;47.422;15.018;2022-09-13T13:37:03;0.69;;;0.69;;
23668;SDS011;12011;47.422;15.018;2022-09-13T13:40:10;0.74;;;0.74;;
23668;SDS011;12011;47.422;15.018;2022-09-13T13:42:50;0.73;;;0.73;;
23668;SDS011;12011;47.422;15.018;2022-09-13T13:45:56;0.76;;;0.76;;
23668;SDS011;12011;47.422;15.018;2022-09-13T13:58:24;0.59;;;0.59;;
23668;SDS011;12011;47.422;15.018;2022-09-13T14:01:12;0.69;;;0.69;;
23668;SDS011;12011;47.422;15.018;2022-09-13T14:03:53;0.88;;;0.88;;
23668;SDS011;12011;47.422;15.018;2022-09-13T14:07:05;0.80;;;0.80;;
23668;SDS011;12011;47.422;15.018;2022-09-13T14:10:04;0.80;;;0.80;;
23668;SDS011;12011;47.422;15.018;2022-09-13T14:12:47;0.93;;;0.93;;
23668;SDS011;12011;47.422;15.018;2022-09-13T14:15:49;0.77;;;0.77;;
23668;SDS011;12011;47.422;15.018;2022-09-13T14:18:33;0.80;;;0.80;;
23668;SDS011;12011;47.422;15.018;2022-09-13T14:21:33;0.92;;;0.92;;
23668;SDS011;12011;47.422;15.018;2022-09-13T14:24:07;0.79;;;0.79;;
23668;SDS011;12011;47.422;15.018;2022-09-13T14:26:45;0.70;;;0.70;;
23668;SDS011;12011;47.422;15.018;2022-09-13T14:29:19;0.65;;;0.65;;
23668;SDS011;12011;47.422;15.018;2022-09-13T14:31:51;0.66;;;0.66;;
23668;SDS011;12011;47.422;15.018;2022-09-13T14:34:29;0.57;;;0.57;;
23668;SDS011;12011;47.422;15.018;2022-09-13T14:37:14;0.56;;;0.56;;
23668;SDS011;12011;47.422;15.018;2022-09-13T14:39:52;0.79;;;0.79;;
23668;SDS011;12011;47.422;15.018;2022-09-13T14:42:23;0.64;;;0.64;;
23668;SDS011;12011;47.422;15.018;2022-09-13T14:44:54;0.65;;;0.65;;
23668;SDS011;12011;47.422;15.018;2022-09-13T14:47:25;0.64;;;0.64;;
23668;SDS011;12011;47.422;15.018;2022-09-13T14:49:59;0.77;;;0.77;;
23668;SDS011;12011;47.422;15.018;2022-09-13T14:52:39;0.55;;;0.55;;
23668;SDS011;12011;47.422;15.018;2022-09-13T14:55:17;0.68;;;0.68;;
23668;SDS011;12011;47.422;15.018;2022-09-13T14:57:55;0.73;;;0.73;;
23668;SDS011;12011;47.422;15.018;2022-09-13T15:00:29;0.74;;;0.74;;
23668;SDS011;12011;47.422;15.018;2022-09-13T15:03:11;0.73;;;0.73;;
23668;SDS011;12011;47.422;15.018;2022-09-13T15:05:49;0.59;;;0.59;;
23668;SDS011;12011;47.422;15.018;2022-09-13T15:08:32;0.53;;;0.53;;
23668;SDS011;12011;47.422;15.018;2022-09-13T15:11:14;0.61;;;0.61;;
23668;SDS011;12011;47.422;15.018;2022-09-13T15:14:08;0.83;;;0.83;;
23668;SDS011;12011;47.422;15.018;2022-09-13T15:16:57;0.76;;;0.76;;
23668;SDS011;12011;47.422;15.018;2022-09-13T15:19:36;1.07;;;1.07;;
23668;SDS011;12011;47.422;15.018;2022-09-13T15:22:11;0.75;;;0.75;;
23668;SDS011;12011;47.422;15.018;2022-09-13T15:24:51;0.78;;;0.78;;
23668;SDS011;12011;47.422;15.018;2022-09-13T15:27:25;0.87;;;0.87;;
23668;SDS011;12011;47.422;15.018;2022-09-13T15:29:58;0.54;;;0.54;;
23668;SDS011;12011;47.422;15.018;2022-09-13T15:32:31;0.54;;;0.54;;
23668;SDS011;12011;47.422;15.018;2022-09-13T15:37:58;0.71;;;0.71;;
23668;SDS011;12011;47.422;15.018;2022-09-13T15:40:42;0.77;;;0.77;;
23668;SDS011;12011;47.422;15.018;2022-09-13T15:43:14;0.76;;;0.76;;
23668;SDS011;12011;47.422;15.018;2022-09-13T15:45:43;0.61;;;0.61;;
23668;SDS011;12011;47.422;15.018;2022-09-13T15:48:15;0.44;;;0.44;;
23668;SDS011;12011;47.422;15.018;2022-09-13T15:51:02;0.45;;;0.45;;
23668;SDS011;12011;47.422;15.018;2022-09-13T15:53:36;0.51;;;0.51;;
23668;SDS011;12011;47.422;15.018;2022-09-13T15:56:12;0.63;;;0.63;;
23668;SDS011;12011;47.422;15.018;2022-09-13T15:58:45;0.55;;;0.55;;
23668;SDS011;12011;47.422;15.018;2022-09-13T16:01:16;0.52;;;0.52;;
23668;SDS011;12011;47.422;15.018;2022-09-13T16:03:46;0.45;;;0.45;;
23668;SDS011;12011;47.422;15.018;2022-09-13T16:06:18;0.55;;;0.55;;
23668;SDS011;12011;47.422;15.018;2022-09-13T16:08:47;0.48;;;0.48;;
23668;SDS011;12011;47.422;15.018;2022-09-13T16:11:19;0.96;;;0.96;;
23668;SDS011;12011;47.422;15.018;2022-09-13T16:13:49;0.81;;;0.81;;
23668;SDS011;12011;47.422;15.018;2022-09-13T16:16:19;0.70;;;0.70;;